Time;durP1;ratioP1;P1;durP2;ratioP2;P2;SDS_P1;SDS_P2;PMS_P1;PMS_P2;Temp;Humidity;BMP_temperature;BMP_pressure;BME280_temperature;BME280_humidity;BME280_pressure;Samples;Min_cycle;Max_cycle;Signal;HPM_P1;HPM_P2
2023/08/07 00:01:34;;;;;;;6.53;4.80;;;;;;;25.18;52.62;99757.19;5092637;28;20427;-63
2023/08/07 00:03:59;;;;;;;7.65;4.75;;;;;;;25.19;52.74;99748.75;5092409;28;20082;-63
2023/08/07 00:06:25;;;;;;;10.43;5.13;;;;;;;25.21;52.73;99754.88;5092932;28;20032;-63
2023/08/07 00:08:51;;;;;;;7.45;4.78;;;;;;;25.17;52.85;99761.00;5092691;28;20447;-63
2023/08/07 00:11:16;;;;;;;7.32;5.25;;;;;;;25.13;52.69;99757.84;5089992;28;20119;-63
2023/08/07 00:13:42;;;;;;;8.40;5.38;;;;;;;25.11;52.93;99767.38;5092354;28;20055;-65
2023/08/07 00:16:07;;;;;;;5.97;4.57;;;;;;;25.05;52.96;99766.34;5092645;28;20039;-63
2023/08/07 00:18:33;;;;;;;7.78;4.82;;;;;;;25.07;53.14;99773.28;5076029;28;20055;-63
2023/08/07 00:20:59;;;;;;;7.80;4.50;;;;;;;25.05;53.13;99777.31;5092352;28;20062;-63
2023/08/07 00:23:25;;;;;;;6.57;4.80;;;;;;;25.02;52.78;99775.00;5092741;28;20039;-62
2023/08/07 00:25:50;;;;;;;6.53;4.70;;;;;;;25.06;53.20;99773.50;5091855;28;20032;-63
2023/08/07 00:28:16;;;;;;;7.43;4.55;;;;;;;24.98;53.25;99760.91;5092228;28;20374;-63
2023/08/07 00:30:41;;;;;;;11.23;5.20;;;;;;;24.96;53.10;99764.91;5092683;28;20035;-64
2023/08/07 00:33:07;;;;;;;8.60;4.97;;;;;;;24.90;53.76;99766.66;5092579;28;20083;-65
2023/08/07 00:35:32;;;;;;;6.50;4.63;;;;;;;24.99;53.40;99769.97;5092821;28;20032;-64
2023/08/07 00:37:58;;;;;;;6.28;4.70;;;;;;;24.98;53.18;99760.91;5092169;28;20032;-65
2023/08/07 00:40:23;;;;;;;8.20;4.65;;;;;;;24.97;53.29;99761.97;5092287;28;20028;-64
2023/08/07 00:42:49;;;;;;;6.72;4.57;;;;;;;24.92;53.16;99759.06;5092275;28;20032;-64
2023/08/07 00:45:14;;;;;;;7.07;4.70;;;;;;;24.85;53.21;99761.00;5091596;28;20139;-64
2023/08/07 00:47:40;;;;;;;6.60;4.53;;;;;;;24.82;53.54;99769.63;5092375;28;20028;-64
2023/08/07 00:50:07;;;;;;;8.35;5.18;;;;;;;24.76;53.78;99765.91;5094857;28;20115;-64
2023/08/07 00:52:33;;;;;;;9.02;4.93;;;;;;;24.75;53.63;99759.56;5095283;28;20082;-64
2023/08/07 00:54:58;;;;;;;5.53;4.80;;;;;;;24.78;53.58;99766.53;5095122;28;20063;-63
2023/08/07 00:57:25;;;;;;;6.78;5.05;;;;;;;24.66;53.50;99745.25;5095544;28;20035;-63
2023/08/07 00:59:51;;;;;;;10.65;5.15;;;;;;;24.77;53.88;99762.94;5095800;28;20439;-64
2023/08/07 01:02:16;;;;;;;7.88;4.93;;;;;;;24.74;53.57;99762.50;5095087;28;20035;-63
2023/08/07 01:04:42;;;;;;;11.05;4.32;;;;;;;24.69;54.12;99756.84;5095845;28;20028;-63
2023/08/07 01:07:07;;;;;;;5.60;4.65;;;;;;;24.62;53.77;99754.16;5093717;28;20028;-63
2023/08/07 01:09:33;;;;;;;10.73;4.95;;;;;;;24.55;54.17;99751.44;5095397;28;20548;-63
2023/08/07 01:12:26;;;;;;;9.88;5.07;;;;;;;24.63;54.28;99750.38;5095518;28;20500;-63
2023/08/07 01:15:12;;;;;;;9.07;5.00;;;;;;;24.63;54.17;99756.66;5095473;28;20438;-64
2023/08/07 01:17:38;;;;;;;8.20;4.50;;;;;;;24.45;54.39;99751.06;5095712;28;20450;-63
2023/08/07 01:20:05;;;;;;;8.63;5.10;;;;;;;24.39;54.66;99743.72;5095676;28;20043;-62
2023/08/07 01:22:30;;;;;;;9.93;5.07;;;;;;;24.39;54.57;99735.50;5095006;28;20032;-64
2023/08/07 01:24:56;;;;;;;6.63;5.05;;;;;;;24.23;55.05;99724.84;5095637;28;20051;-63
2023/08/07 01:27:48;;;;;;;8.57;4.78;;;;;;;24.33;54.88;99740.81;5094506;28;20024;-62
2023/08/07 01:30:33;;;;;;;6.25;4.80;;;;;;;24.34;54.89;99745.22;5084600;28;20051;-63
2023/08/07 01:33:09;;;;;;;9.73;4.87;;;;;;;24.37;55.00;99741.22;5095253;28;20358;-62
2023/08/07 01:35:47;;;;;;;6.68;4.43;;;;;;;24.32;54.63;99736.38;5095574;28;20029;-62
2023/08/07 01:38:14;;;;;;;5.35;4.82;;;;;;;24.19;55.20;99742.75;5094861;28;20036;-63
2023/08/07 01:40:41;;;;;;;10.10;5.07;;;;;;;24.17;55.35;99739.41;5095284;28;20097;-62
2023/08/07 01:43:07;;;;;;;7.82;5.15;;;;;;;24.13;55.31;99740.88;5095154;28;20362;-62
2023/08/07 01:45:33;;;;;;;10.63;5.03;;;;;;;24.12;55.58;99738.34;5094696;28;20105;-64
2023/08/07 01:47:59;;;;;;;8.93;5.20;;;;;;;24.11;55.35;99737.50;5095050;28;20107;-64
2023/08/07 01:50:25;;;;;;;8.45;4.63;;;;;;;24.13;55.10;99735.41;5095092;28;20423;-63
2023/08/07 01:52:50;;;;;;;7.13;5.05;;;;;;;24.21;55.07;99737.06;5094869;28;20105;-64
2023/08/07 01:55:17;;;;;;;7.53;5.15;;;;;;;23.93;55.50;99703.47;5094958;28;20093;-64
2023/08/07 01:57:43;;;;;;;5.15;4.70;;;;;;;24.10;55.43;99735.00;5094550;28;20355;-63
2023/08/07 02:00:09;;;;;;;9.38;5.07;;;;;;;23.94;55.17;99694.22;5093918;28;20085;-63
2023/08/07 02:02:35;;;;;;;9.05;4.82;;;;;;;24.08;55.51;99733.31;5094254;28;20115;-62
2023/08/07 02:05:01;;;;;;;9.77;5.55;;;;;;;24.12;55.48;99730.16;5094717;28;20377;-61
2023/08/07 02:07:27;;;;;;;7.18;5.20;;;;;;;24.17;55.37;99723.00;5093726;28;20095;-62
2023/08/07 02:09:52;;;;;;;7.30;5.25;;;;;;;24.14;55.82;99731.63;5094533;28;20032;-62
2023/08/07 02:12:18;;;;;;;5.80;4.97;;;;;;;24.18;55.18;99730.13;5094259;28;20043;-63
2023/08/07 02:14:43;;;;;;;6.75;5.38;;;;;;;24.16;55.65;99729.50;5094316;28;20145;-62
2023/08/07 02:17:09;;;;;;;6.75;5.20;;;;;;;24.18;55.44;99735.59;5094550;28;20028;-63
2023/08/07 02:19:35;;;;;;;7.68;5.10;;;;;;;24.18;55.34;99732.88;5094083;28;20457;-64
2023/08/07 02:22:01;;;;;;;7.13;5.00;;;;;;;24.20;55.46;99733.50;5094241;28;20451;-63
2023/08/07 02:24:26;;;;;;;8.80;5.05;;;;;;;24.14;55.52;99734.38;5094507;28;20035;-63
2023/08/07 02:26:52;;;;;;;11.13;5.45;;;;;;;24.16;55.42;99734.97;5094170;28;20413;-64
2023/08/07 02:29:17;;;;;;;8.93;5.43;;;;;;;24.11;55.62;99715.63;5093829;28;20016;-64
2023/08/07 02:31:43;;;;;;;8.80;5.40;;;;;;;24.11;55.33;99718.34;5094102;28;20020;-64
2023/08/07 02:34:08;;;;;;;8.55;5.07;;;;;;;24.26;54.84;99723.59;5094462;28;20099;-63
2023/08/07 02:36:34;;;;;;;7.25;4.68;;;;;;;24.28;54.66;99724.22;5093651;28;20100;-63
2023/08/07 02:38:59;;;;;;;6.53;5.22;;;;;;;24.31;54.52;99725.66;5076322;28;20050;-64
2023/08/07 02:41:25;;;;;;;9.38;4.95;;;;;;;24.28;54.82;99721.47;5093559;28;20024;-64
2023/08/07 02:43:50;;;;;;;9.63;5.40;;;;;;;24.34;54.83;99737.00;5093137;28;20035;-65
2023/08/07 02:46:16;;;;;;;6.97;5.00;;;;;;;24.36;54.73;99723.13;5093621;28;20020;-64
2023/08/07 02:48:43;;;;;;;8.07;5.10;;;;;;;24.37;54.59;99730.28;5093908;28;20035;-65
2023/08/07 02:51:09;;;;;;;6.82;5.35;;;;;;;24.38;54.54;99731.97;5092156;28;20038;-64
2023/08/07 02:53:34;;;;;;;6.85;5.10;;;;;;;24.42;54.48;99722.25;5093525;28;20035;-64
2023/08/07 02:56:00;;;;;;;6.55;4.88;;;;;;;24.48;54.30;99729.56;5093839;28;20031;-62
2023/08/07 02:58:26;;;;;;;6.15;4.68;;;;;;;24.44;54.06;99727.50;5093898;28;20390;-63
2023/08/07 03:00:51;;;;;;;8.02;5.38;;;;;;;24.46;53.95;99723.50;5079180;28;20016;-62
2023/08/07 03:03:17;;;;;;;6.25;4.85;;;;;;;24.51;54.05;99720.09;5093836;28;20114;-64
2023/08/07 03:05:52;;;;;;;9.30;5.07;;;;;;;24.66;53.96;99722.53;5093145;28;20036;-63
2023/08/07 03:08:17;;;;;;;10.52;5.50;;;;;;;24.61;53.92;99722.38;5093775;28;20140;-63
2023/08/07 03:10:57;;;;;;;5.70;5.10;;;;;;;24.72;53.57;99718.09;5093837;28;20460;-62
2023/08/07 03:13:24;;;;;;;7.15;4.93;;;;;;;24.72;53.80;99724.41;5092631;28;20048;-62
2023/08/07 03:15:50;;;;;;;8.90;5.15;;;;;;;24.74;53.31;99714.06;5093534;28;20123;-62
2023/08/07 03:18:16;;;;;;;9.68;5.25;;;;;;;24.84;53.17;99726.44;5093550;28;20426;-66
2023/08/07 03:20:43;;;;;;;6.32;5.30;;;;;;;24.70;52.68;99684.59;5093180;28;20089;-60
2023/08/07 03:23:09;;;;;;;5.40;4.88;;;;;;;24.97;52.68;99729.09;5093392;28;20028;-62
2023/08/07 03:25:35;;;;;;;6.78;4.53;;;;;;;24.99;52.36;99713.28;5092346;28;20023;-62
2023/08/07 03:28:00;;;;;;;10.18;4.80;;;;;;;25.12;52.38;99719.75;5093199;28;20031;-63
2023/08/07 03:30:26;;;;;;;5.80;4.47;;;;;;;25.09;52.30;99715.53;5093179;28;20047;-62
2023/08/07 03:32:52;;;;;;;5.68;5.07;;;;;;;25.17;51.93;99722.66;5093293;28;20036;-63
2023/08/07 03:35:18;;;;;;;5.28;4.70;;;;;;;24.99;51.92;99682.34;5090037;28;20036;-64
2023/08/07 03:37:43;;;;;;;5.78;4.90;;;;;;;25.31;51.65;99707.75;5093352;28;20416;-62
2023/08/07 03:40:09;;;;;;;6.00;4.88;;;;;;;25.41;51.55;99711.91;5092832;28;20049;-62
2023/08/07 03:42:34;;;;;;;6.13;4.90;;;;;;;25.54;50.60;99716.47;5092585;28;20509;-63
2023/08/07 03:45:00;;;;;;;6.78;5.15;;;;;;;25.67;50.66;99713.56;5092856;28;20062;-63
2023/08/07 03:47:25;;;;;;;6.85;4.57;;;;;;;25.85;49.99;99709.19;5092233;28;20024;-64
2023/08/07 03:49:51;;;;;;;7.80;4.55;;;;;;;26.49;48.27;99712.44;5093081;28;20116;-67
2023/08/07 03:52:17;;;;;;;8.57;4.90;;;;;;;27.69;45.57;99712.69;5092750;28;20054;-66
2023/08/07 03:54:43;;;;;;;10.48;4.78;;;;;;;28.96;42.53;99714.75;5092755;28;20038;-66
2023/08/07 03:57:10;;;;;;;7.38;4.88;;;;;;;30.20;39.74;99697.31;5090284;28;20032;-66
2023/08/07 03:59:35;;;;;;;5.75;3.92;;;;;;;31.37;37.08;99699.84;5093024;28;20040;-65
2023/08/07 04:02:01;;;;;;;5.18;4.07;;;;;;;32.02;35.71;99704.38;5076632;28;20564;-64
2023/08/07 04:04:26;;;;;;;7.80;4.10;;;;;;;32.43;34.91;99709.25;5093090;28;20031;-64
2023/08/07 04:06:52;;;;;;;11.45;3.60;;;;;;;33.28;33.27;99704.38;5092733;28;20028;-65
2023/08/07 04:09:17;;;;;;;5.53;3.40;;;;;;;34.05;31.91;99706.22;5075280;28;20446;-64
2023/08/07 04:11:43;;;;;;;7.63;3.72;;;;;;;34.54;31.00;99699.03;5092625;28;20104;-65
2023/08/07 04:14:08;;;;;;;9.55;3.30;;;;;;;35.61;29.48;99697.63;5092780;28;20036;-65
2023/08/07 04:16:34;;;;;;;8.73;3.65;;;;;;;36.48;27.94;99712.44;5092049;28;20058;-65
2023/08/07 04:18:59;;;;;;;5.03;3.20;;;;;;;36.96;27.26;99712.59;5092308;28;20111;-64
2023/08/07 04:21:25;;;;;;;8.52;3.17;;;;;;;37.58;26.39;99709.59;5074988;28;20032;-65
2023/08/07 04:23:51;;;;;;;9.63;3.50;;;;;;;38.19;25.38;99703.94;5093087;28;20454;-65
2023/08/07 04:26:16;;;;;;;4.20;3.40;;;;;;;38.70;24.92;99717.91;5097211;28;20461;-66
2023/08/07 04:28:42;;;;;;;5.88;3.35;;;;;;;39.37;23.68;99686.66;5096834;28;20035;-59
2023/08/07 04:31:08;;;;;;;8.13;3.50;;;;;;;39.69;23.02;99710.69;5096879;28;20035;-62
2023/08/07 04:33:33;;;;;;;6.25;3.28;;;;;;;39.65;23.09;99717.25;5096907;28;20032;-55
2023/08/07 04:35:59;;;;;;;4.93;3.53;;;;;;;40.24;22.53;99710.50;5096080;28;20020;-52
2023/08/07 04:38:25;;;;;;;8.00;3.47;;;;;;;40.63;22.19;99720.00;5096188;28;20035;-54
2023/08/07 04:40:51;;;;;;;7.22;3.60;;;;;;;40.85;21.67;99718.22;5095954;28;20023;-60
2023/08/07 04:43:20;;;;;;;8.77;3.20;;;;;;;40.55;21.67;99721.63;5096111;28;20032;-61
2023/08/07 04:45:45;;;;;;;11.82;3.30;;;;;;;40.97;21.26;99725.97;5095271;28;20032;-61
2023/08/07 04:48:11;;;;;;;5.88;3.28;;;;;;;41.14;20.81;99703.47;5095828;28;20088;-60
2023/08/07 04:50:38;;;;;;;9.50;3.33;;;;;;;41.70;20.25;99721.50;5078134;28;20060;-61
2023/08/07 04:53:06;;;;;;;6.05;3.40;;;;;;;42.16;20.00;99725.44;5095555;28;20040;-60
2023/08/07 04:55:32;;;;;;;5.63;3.30;;;;;;;42.53;19.44;99716.41;5093327;28;20020;-61
2023/08/07 04:57:58;;;;;;;5.55;3.58;;;;;;;41.63;19.91;99724.03;5095500;28;20043;-61
2023/08/07 05:00:24;;;;;;;5.47;3.40;;;;;;;41.58;20.00;99728.66;5095557;28;20035;-61
2023/08/07 05:02:50;;;;;;;8.85;3.13;;;;;;;41.81;19.60;99710.72;5095337;28;20107;-61
2023/08/07 05:05:17;;;;;;;11.68;3.55;;;;;;;42.08;19.15;99712.25;5095518;28;20023;-60
2023/08/07 05:07:42;;;;;;;5.32;3.17;;;;;;;42.16;19.32;99705.75;5095458;28;20052;-61
2023/08/07 05:10:09;;;;;;;7.15;3.47;;;;;;;41.96;19.15;99692.44;5095193;28;20051;-61
2023/08/07 05:12:35;;;;;;;7.70;3.22;;;;;;;42.99;18.30;99701.63;5095069;28;20039;-61
2023/08/07 05:15:00;;;;;;;9.70;3.75;;;;;;;44.09;17.21;99688.03;5094960;28;20028;-61
2023/08/07 05:17:26;;;;;;;7.75;3.55;;;;;;;44.86;16.57;99677.06;5094808;28;20168;-61
2023/08/07 05:19:51;;;;;;;6.35;3.35;;;;;;;45.44;15.88;99681.44;5095614;28;20032;-61
2023/08/07 05:22:17;;;;;;;6.30;3.35;;;;;;;45.50;15.83;99691.28;5095211;28;20028;-61
2023/08/07 05:24:44;;;;;;;10.75;3.53;;;;;;;45.11;16.24;99694.69;5095060;28;20997;-62
2023/08/07 05:27:11;;;;;;;8.68;3.20;;;;;;;44.86;16.60;99685.53;5094985;28;20362;-62
2023/08/07 05:29:43;;;;;;;6.00;3.20;;;;;;;45.28;15.83;99706.84;5095085;28;20024;-62
2023/08/07 05:32:11;;;;;;;7.97;3.17;;;;;;;44.26;16.78;99700.28;5094700;28;20017;-61
2023/08/07 05:34:36;;;;;;;7.38;3.10;;;;;;;43.92;17.00;99688.31;5094180;28;20024;-63
2023/08/07 05:37:02;;;;;;;8.25;3.10;;;;;;;44.07;16.87;99693.22;5094693;28;20028;-62
2023/08/07 05:39:27;;;;;;;5.45;3.30;;;;;;;44.98;15.90;99679.03;5094674;28;20028;-62
2023/08/07 05:41:54;;;;;;;5.93;3.20;;;;;;;45.05;16.29;99686.84;5077110;28;20109;-62
2023/08/07 05:44:20;;;;;;;9.15;3.25;;;;;;;44.90;16.18;99674.31;5095335;28;20116;-63
2023/08/07 05:46:46;;;;;;;10.40;3.35;;;;;;;44.98;15.85;99677.00;5094432;28;20422;-62
2023/08/07 05:49:11;;;;;;;9.23;3.03;;;;;;;45.44;15.47;99681.44;5094524;28;20060;-64
2023/08/07 05:51:36;;;;;;;8.95;3.25;;;;;;;46.81;14.44;99678.09;5076805;28;20024;-65
2023/08/07 05:54:02;;;;;;;5.68;3.28;;;;;;;47.05;14.02;99661.16;5094856;28;20450;-65
2023/08/07 05:56:28;;;;;;;8.38;3.03;;;;;;;47.08;14.10;99663.22;5094559;28;20032;-64
2023/08/07 05:58:53;;;;;;;5.68;2.90;;;;;;;47.45;13.73;99665.50;5094861;28;20036;-64
2023/08/07 06:01:18;;;;;;;7.88;2.90;;;;;;;46.90;13.77;99671.38;5076917;28;20048;-66
2023/08/07 06:03:44;;;;;;;5.45;2.60;;;;;;;46.90;13.84;99666.56;5076657;28;20039;-65
2023/08/07 06:06:09;;;;;;;4.90;2.65;;;;;;;47.30;13.47;99641.78;5094569;28;20423;-68
2023/08/07 06:08:35;;;;;;;6.40;2.75;;;;;;;48.47;12.89;99696.25;5093243;28;20044;-64
2023/08/07 06:11:03;;;;;;;3.90;2.28;;;;;;;48.70;11.94;99647.00;5094338;28;20043;-64
2023/08/07 06:13:29;;;;;;;6.60;2.78;;;;;;;48.17;12.47;99674.34;5094090;28;20126;-64
2023/08/07 06:15:54;;;;;;;5.30;2.38;;;;;;;47.66;13.14;99665.06;5094637;28;20097;-64
2023/08/07 06:18:20;;;;;;;7.20;3.00;;;;;;;46.91;13.81;99654.03;5093389;28;20362;-65
2023/08/07 06:20:46;;;;;;;6.88;2.70;;;;;;;47.16;13.29;99662.16;5093686;28;20805;-65
2023/08/07 06:23:12;;;;;;;5.82;2.50;;;;;;;47.20;13.52;99665.88;5091326;28;20031;-64
2023/08/07 06:25:38;;;;;;;4.38;2.42;;;;;;;47.43;13.80;99662.22;5093845;28;20469;-63
2023/08/07 06:28:03;;;;;;;6.70;2.50;;;;;;;47.47;12.97;99665.94;5093504;28;20120;-64
2023/08/07 06:30:31;;;;;;;11.32;2.83;;;;;;;47.42;13.04;99647.25;5093805;28;20024;-65
2023/08/07 06:32:56;;;;;;;6.15;2.35;;;;;;;47.48;13.05;99659.06;5075929;28;20028;-64
2023/08/07 06:35:22;;;;;;;4.95;2.20;;;;;;;47.23;13.11;99659.44;5093483;28;20031;-64
2023/08/07 06:37:48;;;;;;;5.18;2.20;;;;;;;46.98;13.01;99664.69;5093411;28;20077;-66
2023/08/07 06:40:14;;;;;;;5.03;2.08;;;;;;;47.62;12.61;99671.84;5076069;28;20032;-68
2023/08/07 06:42:39;;;;;;;5.13;2.30;;;;;;;48.49;11.97;99667.47;5076165;28;20107;-66
2023/08/07 06:45:06;;;;;;;6.32;2.22;;;;;;;49.61;11.48;99648.72;5093945;28;20028;-67
2023/08/07 06:47:32;;;;;;;9.73;2.88;;;;;;;50.93;10.54;99663.16;5092838;28;20035;-66
2023/08/07 06:49:57;;;;;;;12.43;3.92;;;;;;;50.64;10.50;99654.53;5077674;28;20039;-65
2023/08/07 06:52:23;;;;;;;10.77;3.60;;;;;;;51.14;10.27;99650.19;5093569;28;20096;-65
2023/08/07 06:54:48;;;;;;;9.00;3.13;;;;;;;51.85;9.97;99629.75;5079634;28;20028;-66
2023/08/07 06:57:14;;;;;;;10.10;2.60;;;;;;;52.77;9.51;99626.09;5076015;28;20450;-64
2023/08/07 06:59:39;;;;;;;8.05;3.13;;;;;;;53.79;8.93;99626.91;5093726;28;20028;-61
2023/08/07 07:02:06;;;;;;;11.18;3.17;;;;;;;54.73;7.87;99632.66;5093932;28;20034;-62
2023/08/07 07:04:32;;;;;;;16.33;3.80;;;;;;;54.28;8.52;99630.81;5093061;28;20093;-60
2023/08/07 07:06:57;;;;;;;9.82;3.35;;;;;;;53.86;8.67;99620.25;5093885;28;20138;-62
2023/08/07 07:09:23;;;;;;;7.70;3.17;;;;;;;53.10;8.52;99641.81;5093463;28;20062;-62
2023/08/07 07:11:48;;;;;;;5.93;2.60;;;;;;;52.82;8.65;99625.69;5093043;28;20519;-62
2023/08/07 07:14:14;;;;;;;6.65;2.80;;;;;;;52.45;8.99;99645.03;5092885;28;20036;-61
2023/08/07 07:16:41;;;;;;;6.43;3.38;;;;;;;51.85;9.31;99612.63;5092979;28;20031;-62
2023/08/07 07:19:08;;;;;;;7.43;2.50;;;;;;;52.74;8.79;99612.66;5093559;28;20024;-63
2023/08/07 07:21:34;;;;;;;6.53;3.20;;;;;;;53.67;8.14;99610.22;5093668;28;20032;-63
2023/08/07 07:24:00;;;;;;;5.82;3.00;;;;;;;53.28;8.41;99620.81;5093541;28;20093;-62
2023/08/07 07:26:26;;;;;;;8.73;3.03;;;;;;;53.97;7.92;99607.88;5076714;28;20420;-63
2023/08/07 07:28:51;;;;;;;8.18;3.20;;;;;;;55.04;7.43;99604.75;5092751;28;20036;-62
2023/08/07 07:31:17;;;;;;;9.88;3.17;;;;;;;54.99;7.66;99602.34;5093250;28;20442;-62
2023/08/07 07:33:42;;;;;;;6.93;2.90;;;;;;;53.96;8.07;99618.50;5092643;28;20455;-65
2023/08/07 07:36:14;;;;;;;7.72;3.50;;;;;;;52.50;9.26;99629.53;5093078;28;20077;-62
2023/08/07 07:38:40;;;;;;;6.15;2.97;;;;;;;51.53;9.42;99597.22;5093083;28;20093;-63
2023/08/07 07:41:09;;;;;;;8.70;3.20;;;;;;;51.69;9.39;99603.28;5092598;28;20347;-62
2023/08/07 07:43:35;;;;;;;6.93;2.60;;;;;;;52.24;8.83;99600.25;5092379;28;20343;-71
2023/08/07 07:46:00;;;;;;;7.03;2.58;;;;;;;52.79;8.51;99595.88;5092721;28;20066;-68
2023/08/07 07:48:26;;;;;;;9.20;3.05;;;;;;;53.43;8.55;99604.34;5092458;28;20062;-68
2023/08/07 07:50:53;;;;;;;9.57;2.95;;;;;;;53.65;7.94;99602.06;5092428;28;20032;-68
2023/08/07 07:53:18;;;;;;;6.15;2.92;;;;;;;53.68;8.29;99600.41;5075510;28;20119;-68
2023/08/07 07:55:48;;;;;;;6.30;3.25;;;;;;;54.05;8.26;99603.69;5058199;28;20107;-69
2023/08/07 07:58:13;;;;;;;7.53;3.25;;;;;;;53.59;8.07;99600.13;5074719;28;20024;-69
2023/08/07 08:00:39;;;;;;;7.28;3.00;;;;;;;53.56;8.40;99595.25;5092682;28;20503;-68
2023/08/07 08:03:04;;;;;;;9.60;2.95;;;;;;;53.61;8.25;99574.75;5092703;28;20047;-69
2023/08/07 08:05:29;;;;;;;6.17;3.20;;;;;;;53.10;8.61;99569.53;5080245;28;20433;-67
2023/08/07 08:07:55;;;;;;;8.45;3.53;;;;;;;53.06;8.87;99574.47;5092493;28;20745;-67
2023/08/07 08:10:21;;;;;;;10.13;3.28;;;;;;;52.76;8.64;99601.63;5092639;28;20044;-69
2023/08/07 08:12:46;;;;;;;10.13;2.92;;;;;;;51.58;9.29;99593.94;5084349;28;20078;-68
2023/08/07 08:15:12;;;;;;;5.53;2.50;;;;;;;49.93;10.16;99641.63;5074601;28;20024;-69
2023/08/07 08:17:38;;;;;;;11.93;2.75;;;;;;;48.55;11.45;99581.53;5092355;28;20032;-66
2023/08/07 08:20:05;;;;;;;7.80;2.47;;;;;;;47.19;12.48;99578.41;5075904;28;20447;-67
2023/08/07 08:22:31;;;;;;;8.63;2.22;;;;;;;45.02;14.23;99581.88;5074645;28;20485;-68
2023/08/07 08:24:57;;;;;;;4.47;2.17;;;;;;;42.71;15.88;99576.38;5091680;28;20135;-69
2023/08/07 08:27:23;;;;;;;10.00;2.85;;;;;;;40.48;18.54;99570.66;5058176;28;20048;-67
2023/08/07 08:29:48;;;;;;;10.05;2.30;;;;;;;38.39;20.39;99622.69;5092051;28;20385;-67
2023/08/07 08:32:14;;;;;;;5.82;2.20;;;;;;;36.83;22.34;99563.56;5074055;28;20051;-68
2023/08/07 08:34:39;;;;;;;7.68;2.20;;;;;;;36.01;23.66;99572.09;5092247;28;20431;-71
2023/08/07 08:37:05;;;;;;;7.32;2.17;;;;;;;35.25;24.53;99529.06;5082200;28;20044;-67
2023/08/07 08:39:31;;;;;;;7.90;2.40;;;;;;;34.99;25.25;99565.47;5089743;28;20359;-64
2023/08/07 08:41:57;;;;;;;7.38;2.35;;;;;;;34.14;26.44;99485.03;5091624;28;20046;-67
2023/08/07 08:44:24;;;;;;;5.20;2.35;;;;;;;34.05;26.55;99561.78;5091566;28;20028;-66
2023/08/07 08:46:53;;;;;;;5.47;2.17;;;;;;;33.58;27.51;99577.81;5075433;28;20078;-63
2023/08/07 08:49:27;;;;;;;12.27;2.95;;;;;;;33.42;27.29;99569.56;5071474;28;20040;-65
2023/08/07 08:51:53;;;;;;;6.53;2.38;;;;;;;32.77;28.45;99564.66;5077443;28;20443;-66
2023/08/07 08:54:19;;;;;;;7.45;2.53;;;;;;;32.74;27.95;99563.25;5070636;28;20043;-65
2023/08/07 08:56:45;;;;;;;6.60;2.40;;;;;;;32.18;28.59;99580.63;5052921;28;20470;-63
2023/08/07 08:59:11;;;;;;;6.80;2.53;;;;;;;32.03;28.90;99573.13;5077670;28;20028;-65
2023/08/07 09:01:38;;;;;;;5.85;2.38;;;;;;;31.56;30.19;99564.66;5081926;28;20039;-65
2023/08/07 09:04:04;;;;;;;8.13;2.47;;;;;;;31.26;30.40;99566.19;5071238;28;20029;-65
2023/08/07 09:06:31;;;;;;;7.30;2.90;;;;;;;31.23;30.64;99547.38;5076186;28;20442;-62
2023/08/07 09:08:59;;;;;;;11.60;3.13;;;;;;;31.24;30.91;99534.38;5080078;28;20074;-62
2023/08/07 09:11:26;;;;;;;15.02;3.20;;;;;;;31.34;30.68;99543.53;5093104;28;20028;-64
2023/08/07 09:13:54;;;;;;;15.20;2.92;;;;;;;31.50;30.79;99549.16;5077556;28;20060;-55
2023/08/07 09:16:20;;;;;;;11.02;2.50;;;;;;;31.54;31.07;99546.69;5094196;28;20063;-56
2023/08/07 09:18:46;;;;;;;8.50;2.70;;;;;;;31.52;31.00;99527.56;5093987;28;20044;-55
2023/08/07 09:21:12;;;;;;;5.53;2.53;;;;;;;31.56;30.56;99530.63;5077930;28;20036;-52
2023/08/07 09:23:37;;;;;;;8.05;3.22;;;;;;;31.48;31.33;99507.09;5093052;28;20070;-53
2023/08/07 09:26:04;;;;;;;5.72;2.97;;;;;;;31.64;30.63;99519.88;5094114;28;20067;-54
2023/08/07 09:28:30;;;;;;;7.03;2.40;;;;;;;31.76;30.78;99525.19;5076109;28;20454;-63
2023/08/07 09:30:56;;;;;;;7.20;2.60;;;;;;;31.84;30.07;99545.16;5093687;28;20401;-57
2023/08/07 09:33:29;;;;;;;4.15;2.30;;;;;;;31.73;30.47;99520.19;5093451;28;20031;-51
2023/08/07 09:35:59;;;;;;;8.25;2.38;;;;;;;31.83;30.57;99524.94;5091394;28;20094;-54
2023/08/07 09:38:28;;;;;;;5.65;2.20;;;;;;;31.85;30.73;99544.03;5092962;28;20046;-56
2023/08/07 09:40:57;;;;;;;4.20;2.33;;;;;;;31.84;30.00;99557.06;5090589;28;20423;-58
2023/08/07 09:43:23;;;;;;;5.38;2.60;;;;;;;31.64;30.68;99525.41;5093718;28;20055;-54
2023/08/07 09:45:50;;;;;;;5.95;2.70;;;;;;;31.57;30.22;99530.34;5076356;28;20074;-55
2023/08/07 09:48:24;;;;;;;9.30;2.67;;;;;;;31.51;30.18;99545.28;5093591;28;20138;-54
2023/08/07 09:50:50;;;;;;;4.43;2.00;;;;;;;31.42;30.44;99513.72;5093996;28;20036;-56
2023/08/07 09:53:16;;;;;;;4.80;2.70;;;;;;;31.54;30.86;99532.84;5093654;28;20361;-53
2023/08/07 09:55:41;;;;;;;9.55;1.98;;;;;;;31.43;30.62;99518.97;5076697;28;20024;-57
2023/08/07 09:58:11;;;;;;;4.68;2.22;;;;;;;31.45;30.83;99518.69;5093784;28;20028;-62
2023/08/07 10:00:37;;;;;;;4.47;2.30;;;;;;;31.32;30.68;99479.38;5093506;28;20046;-60
2023/08/07 10:03:04;;;;;;;7.07;2.20;;;;;;;31.47;30.76;99510.97;5086428;28;20036;-55
2023/08/07 10:05:30;;;;;;;5.53;2.30;;;;;;;31.52;30.13;99508.22;5093448;28;20039;-52
2023/08/07 10:07:57;;;;;;;10.82;2.45;;;;;;;31.54;30.35;99489.41;5087206;28;20070;-50
2023/08/07 10:10:25;;;;;;;4.20;2.30;;;;;;;31.50;30.75;99472.53;5073865;28;20040;-51
2023/08/07 10:12:53;;;;;;;4.85;2.40;;;;;;;31.59;30.67;99524.56;5087305;28;20430;-57
2023/08/07 10:15:19;;;;;;;5.32;2.22;;;;;;;31.47;31.19;99497.97;5093983;28;20051;-57
2023/08/07 10:17:45;;;;;;;6.55;2.47;;;;;;;31.40;31.28;99491.84;5093932;28;20106;-56
2023/08/07 10:20:12;;;;;;;4.18;2.28;;;;;;;31.37;31.16;99495.16;5093427;28;20358;-57
2023/08/07 10:22:39;;;;;;;3.33;2.50;;;;;;;31.40;31.04;99477.19;5090873;28;21045;-62
2023/08/07 10:25:06;;;;;;;8.27;2.70;;;;;;;31.50;31.56;99499.34;5093707;28;20326;-59
2023/08/07 10:27:35;;;;;;;5.78;2.22;;;;;;;31.68;30.75;99505.50;5092697;28;20145;-56
2023/08/07 10:30:04;;;;;;;4.50;2.17;;;;;;;31.62;29.71;99508.25;5059160;28;20028;-57
2023/08/07 10:32:33;;;;;;;5.43;2.30;;;;;;;31.54;29.74;99466.44;5093957;28;20046;-52
2023/08/07 10:35:04;;;;;;;2.75;2.08;;;;;;;31.41;29.66;99468.63;5093518;28;20114;-59
2023/08/07 10:37:40;;;;;;;4.57;2.38;;;;;;;31.67;29.70;99507.41;5093228;28;20040;-60
2023/08/07 10:40:12;;;;;;;6.07;2.30;;;;;;;31.48;30.42;99474.75;5073462;28;20032;-60
2023/08/07 10:42:54;;;;;;;5.53;2.42;;;;;;;31.60;30.13;99460.66;5055872;28;20039;-55
2023/08/07 10:45:22;;;;;;;6.50;2.17;;;;;;;31.50;29.60;99474.44;5073371;28;20038;-56
2023/08/07 10:48:11;;;;;;;2.25;2.03;;;;;;;31.79;29.06;99485.06;5072365;28;20316;-59
2023/08/07 10:50:55;;;;;;;8.02;2.40;;;;;;;31.88;28.93;99466.81;5073257;28;20031;-57
2023/08/07 10:53:28;;;;;;;4.63;2.10;;;;;;;31.67;29.02;99465.09;5079792;28;20028;-57
2023/08/07 10:55:57;;;;;;;6.40;2.20;;;;;;;31.52;29.62;99447.34;5093452;28;20028;-58
2023/08/07 10:58:30;;;;;;;3.70;2.17;;;;;;;31.36;29.29;99421.59;5092827;28;20020;-62
2023/08/07 11:01:22;;;;;;;7.30;2.20;;;;;;;31.95;29.22;99440.81;5093190;28;20089;-62
2023/08/07 11:03:57;;;;;;;5.18;2.10;;;;;;;31.56;29.55;99453.97;5092995;28;20176;-59
2023/08/07 11:06:30;;;;;;;4.68;2.10;;;;;;;31.63;29.62;99432.44;5072711;28;20429;-59
2023/08/07 11:08:57;;;;;;;2.25;2.05;;;;;;;31.41;29.97;99437.38;5081817;28;20044;-57
2023/08/07 11:11:23;;;;;;;5.68;2.00;;;;;;;31.56;29.20;99433.81;5093091;28;20070;-59
2023/08/07 11:13:50;;;;;;;3.40;2.10;;;;;;;31.52;30.41;99422.44;5092591;28;20478;-58
2023/08/07 11:16:16;;;;;;;4.63;2.42;;;;;;;31.56;30.38;99404.19;5086088;28;20036;-59
2023/08/07 11:18:43;;;;;;;2.78;2.25;;;;;;;31.65;30.38;99429.38;5092724;28;20381;-61
2023/08/07 11:21:13;;;;;;;6.10;2.30;;;;;;;31.64;30.46;99431.34;5092908;28;20374;-57
2023/08/07 11:23:40;;;;;;;10.63;2.70;;;;;;;31.65;30.17;99421.94;5086750;28;20123;-58
2023/08/07 11:26:06;;;;;;;4.43;2.08;;;;;;;31.63;30.50;99426.06;5072661;28;20046;-58
2023/08/07 11:28:32;;;;;;;8.95;2.60;;;;;;;31.68;30.41;99406.69;5072394;28;20037;-59
2023/08/07 11:30:58;;;;;;;5.10;2.55;;;;;;;31.76;30.79;99400.66;5080397;28;20044;-61
2023/08/07 11:33:25;;;;;;;5.20;2.30;;;;;;;31.71;30.93;99405.31;5091550;28;20048;-59